createdAt,value
2018-12-21T00:00:32.029Z,263.86
2018-12-21T00:01:32.182Z,263.47
2018-12-21T00:02:32.280Z,260.47
2018-12-21T00:03:32.318Z,261.13
2018-12-21T00:04:32.370Z,264.43
2018-12-21T00:05:32.455Z,264.63
2018-12-21T00:06:32.557Z,264.92
2018-12-21T00:07:32.711Z,264.24
2018-12-21T00:08:32.725Z,262.90
2018-12-21T00:09:32.791Z,264.99
2018-12-21T00:10:33.007Z,260.57
2018-12-21T00:11:32.979Z,263.14
2018-12-21T00:12:33.038Z,260.30
2018-12-21T00:13:33.150Z,264.02
2018-12-21T00:14:33.225Z,261.48
2018-12-21T00:15:33.308Z,265.85
2018-12-21T00:16:33.424Z,264.90
2018-12-21T00:17:34.757Z,264.22
2018-12-21T00:18:33.628Z,261.96
2018-12-21T00:19:33.654Z,260.27
2018-12-21T00:20:33.743Z,261.85
2018-12-21T00:21:33.862Z,264.79
2018-12-21T00:22:33.914Z,265.37
2018-12-21T00:23:34.017Z,261.35
2018-12-21T00:24:34.087Z,262.48
2018-12-21T00:25:34.191Z,264.62
2018-12-21T00:26:34.341Z,260.89
2018-12-21T00:27:34.343Z,265.10
2018-12-21T00:28:34.437Z,260.38
2018-12-21T00:29:34.532Z,259.94
2018-12-21T00:30:34.583Z,260.90
2018-12-21T00:31:34.717Z,260.95
2018-12-21T00:32:34.782Z,262.89
2018-12-21T00:33:34.884Z,263.78
2018-12-21T00:34:35.036Z,260.71
2018-12-21T00:35:35.085Z,263.80
2018-12-21T00:36:35.135Z,262.68
2018-12-21T00:37:35.201Z,260.61
2018-12-21T00:38:35.276Z,259.36
2018-12-21T00:39:35.403Z,263.54
2018-12-21T00:40:35.453Z,260.58
2018-12-21T00:41:35.543Z,260.95
2018-12-21T00:42:35.633Z,265.20
2018-12-21T00:43:35.841Z,264.31
2018-12-21T00:44:35.845Z,263.21
2018-12-21T00:45:35.880Z,266.22
2018-12-21T00:46:35.978Z,265.12
2018-12-21T00:47:36.058Z,262.50
2018-12-21T00:48:36.142Z,262.67
2018-12-21T00:49:36.265Z,265.88
2018-12-21T00:50:36.318Z,263.73
2018-12-21T00:51:36.526Z,265.59
2018-12-21T00:52:36.482Z,260.54
2018-12-21T00:53:40.890Z,263.75
2018-12-21T00:54:36.678Z,264.44
2018-12-21T00:55:36.736Z,263.60
2018-12-21T00:56:36.841Z,264.52
2018-12-21T00:57:36.903Z,261.40
2018-12-21T00:58:36.994Z,262.19
2018-12-21T00:59:37.173Z,264.02
2018-12-21T01:00:37.161Z,261.62
2018-12-21T01:01:37.268Z,266.67
2018-12-21T01:02:37.346Z,264.01
2018-12-21T01:03:37.405Z,265.22
2018-12-21T01:04:37.523Z,261.82
2018-12-21T01:05:37.592Z,264.25
2018-12-21T01:06:37.928Z,264.39
2018-12-21T01:07:37.849Z,261.39
2018-12-21T01:08:37.829Z,261.32
2018-12-21T01:09:37.919Z,265.57
2018-12-21T01:10:38.003Z,265.25
2018-12-21T01:11:38.108Z,263.50
2018-12-21T01:12:38.200Z,260.68
2018-12-21T01:13:38.268Z,265.81
2018-12-21T01:14:38.381Z,263.82
2018-12-21T01:15:38.448Z,264.72
2018-12-21T01:16:38.569Z,265.30
2018-12-21T01:17:38.615Z,261.44
2018-12-21T01:18:38.696Z,261.52
2018-12-21T01:19:38.884Z,263.71
2018-12-21T01:20:38.845Z,263.61
2018-12-21T01:21:39.205Z,261.21
2018-12-21T01:22:39.042Z,263.68
2018-12-21T01:23:39.164Z,261.63
2018-12-21T01:24:39.372Z,264.75
2018-12-21T01:25:39.270Z,264.64
2018-12-21T01:26:39.386Z,264.27
2018-12-21T01:27:39.466Z,265.42
2018-12-21T01:28:39.536Z,261.33
2018-12-21T01:29:39.639Z,262.93
2018-12-21T01:30:39.708Z,265.31
2018-12-21T01:31:39.785Z,265.01
2018-12-21T01:32:40.000Z,260.98
2018-12-21T01:33:39.980Z,263.21
2018-12-21T01:34:40.099Z,263.06
2018-12-21T01:35:40.146Z,261.57
2018-12-21T01:36:40.217Z,265.54
2018-12-21T01:37:40.326Z,262.03
2018-12-21T01:38:40.430Z,265.92
2018-12-21T01:39:40.553Z,261.92
2018-12-21T01:40:40.843Z,265.00
2018-12-21T01:41:40.654Z,261.12
2018-12-21T01:42:40.730Z,264.18
2018-12-21T01:43:40.834Z,261.50
2018-12-21T01:44:40.954Z,261.49
2018-12-21T01:45:41.002Z,263.06
2018-12-21T01:46:41.087Z,260.77
2018-12-21T01:47:41.188Z,262.18
2018-12-21T01:48:41.293Z,263.01
2018-12-21T01:49:41.371Z,264.95
2018-12-21T01:50:41.425Z,264.23
2018-12-21T01:51:47.066Z,261.51
2018-12-21T01:52:42.614Z,262.55
2018-12-21T01:53:41.703Z,262.75
2018-12-21T01:54:41.799Z,266.08
2018-12-21T01:55:41.874Z,264.54
2018-12-21T01:56:41.984Z,264.03
2018-12-21T01:57:42.140Z,264.17
2018-12-21T01:58:42.131Z,264.59
2018-12-21T01:59:42.246Z,266.19
2018-12-21T02:00:42.309Z,261.22
2018-12-21T02:01:42.394Z,260.66
2018-12-21T02:02:42.497Z,264.74
2018-12-21T02:03:42.566Z,262.42
2018-12-21T02:04:42.691Z,260.06
2018-12-21T02:05:42.843Z,264.66
2018-12-21T02:06:42.827Z,264.66
2018-12-21T02:07:42.922Z,260.68
2018-12-21T02:08:42.993Z,262.23
2018-12-21T02:09:43.109Z,263.12
2018-12-21T02:10:43.148Z,260.76
2018-12-21T02:11:43.253Z,261.41
2018-12-21T02:12:43.348Z,263.92
2018-12-21T02:13:43.503Z,261.07
2018-12-21T02:14:43.528Z,263.33
2018-12-21T02:15:43.558Z,264.86
2018-12-21T02:16:43.665Z,264.56
2018-12-21T02:17:43.767Z,262.51
2018-12-21T02:18:43.833Z,260.31
2018-12-21T02:19:43.965Z,260.63
2018-12-21T02:20:44.004Z,261.28
2018-12-21T02:21:44.116Z,262.48
2018-12-21T02:22:44.169Z,264.56
2018-12-21T02:23:44.243Z,263.95
2018-12-21T02:24:44.354Z,260.89
2018-12-21T02:25:44.415Z,262.35
2018-12-21T02:26:44.501Z,261.17
2018-12-21T02:27:44.580Z,260.02
2018-12-21T02:28:44.678Z,260.85
2018-12-21T02:29:44.865Z,265.31
2018-12-21T02:30:44.840Z,263.83
2018-12-21T02:31:44.939Z,265.50
2018-12-21T02:32:45.065Z,264.12
2018-12-21T02:33:45.096Z,262.84
2018-12-21T02:34:45.847Z,264.12
2018-12-21T02:35:45.275Z,264.96
2018-12-21T02:36:45.359Z,264.06
2018-12-21T02:37:45.468Z,264.68
2018-12-21T02:38:45.722Z,261.22
2018-12-21T02:39:45.649Z,264.13
2018-12-21T02:40:45.698Z,265.54
2018-12-21T02:41:45.783Z,260.22
2018-12-21T02:42:45.886Z,263.42
2018-12-21T02:43:45.951Z,264.77
2018-12-21T02:44:46.040Z,261.34
2018-12-21T02:45:46.121Z,259.50
2018-12-21T02:46:46.342Z,263.75
2018-12-21T02:47:46.408Z,264.62
2018-12-21T02:48:46.394Z,261.55
2018-12-21T02:49:46.484Z,260.36
2018-12-21T02:50:46.586Z,260.50
2018-12-21T02:51:46.670Z,264.59
2018-12-21T02:52:46.770Z,264.09
2018-12-21T02:53:46.844Z,264.09
2018-12-21T02:54:46.976Z,260.84
2018-12-21T02:55:47.017Z,264.63
2018-12-21T02:56:47.103Z,261.11
2018-12-21T02:57:47.204Z,261.22
2018-12-21T02:58:47.271Z,265.65
2018-12-21T02:59:47.374Z,260.73
2018-12-21T03:00:47.442Z,264.50
2018-12-21T03:01:47.526Z,263.05
2018-12-21T03:02:47.690Z,260.95
2018-12-21T03:03:47.692Z,212.95
2018-12-21T03:04:47.790Z,262.44
2018-12-21T03:05:47.890Z,260.97
2018-12-21T03:06:47.936Z,264.59
2018-12-21T03:07:48.046Z,262.28
2018-12-21T03:08:48.115Z,261.03
2018-12-21T03:09:48.207Z,261.77
2018-12-21T03:10:48.339Z,261.02
2018-12-21T03:11:48.383Z,265.27
2018-12-21T03:12:48.465Z,260.44
2018-12-21T03:13:48.546Z,260.17
2018-12-21T03:14:48.870Z,262.30
2018-12-21T03:15:48.732Z,263.34
2018-12-21T03:16:48.795Z,261.11
2018-12-21T03:17:48.900Z,263.60
2018-12-21T03:18:49.185Z,264.75
2018-12-21T03:19:49.169Z,260.30
2018-12-21T03:20:49.155Z,260.09
2018-12-21T03:21:49.220Z,264.00
2018-12-21T03:22:49.309Z,264.26
2018-12-21T03:23:49.377Z,260.56
2018-12-21T03:24:49.497Z,260.47
2018-12-21T03:25:49.576Z,266.08
2018-12-21T03:26:49.644Z,262.48
2018-12-21T03:27:49.790Z,265.52
2018-12-21T03:28:49.804Z,261.48
2018-12-21T03:29:49.926Z,260.56
2018-12-21T03:30:50.016Z,260.25
2018-12-21T03:31:50.076Z,261.31
2018-12-21T03:32:50.184Z,264.03
2018-12-21T03:33:50.238Z,262.12
2018-12-21T03:34:50.362Z,264.94
2018-12-21T03:35:50.540Z,260.57
2018-12-21T03:36:50.504Z,263.07
2018-12-21T03:37:50.609Z,263.69
2018-12-21T03:38:50.675Z,265.42
2018-12-21T03:39:50.763Z,262.24
2018-12-21T03:40:50.861Z,263.90
2018-12-21T03:41:50.932Z,264.63
2018-12-21T03:42:51.022Z,263.60
2018-12-21T03:43:51.143Z,261.85
2018-12-21T03:44:51.165Z,261.12
2018-12-21T03:45:51.260Z,260.60
2018-12-21T03:46:51.343Z,262.75
2018-12-21T03:47:51.441Z,261.51
2018-12-21T03:48:51.503Z,264.12
2018-12-21T03:49:51.626Z,263.55
2018-12-21T03:50:51.701Z,260.30
2018-12-21T03:51:51.801Z,262.03
2018-12-21T03:52:51.881Z,264.67
2018-12-21T03:53:51.937Z,260.65
2018-12-21T03:54:52.037Z,262.18
2018-12-21T03:55:52.227Z,265.43
2018-12-21T03:56:52.172Z,261.08
2018-12-21T03:57:52.275Z,265.08
2018-12-21T03:58:52.372Z,263.11
2018-12-21T03:59:52.481Z,263.50
2018-12-21T04:00:52.674Z,212.53
2018-12-21T04:01:52.612Z,212.63
2018-12-21T04:02:52.714Z,212.62
2018-12-21T04:03:52.813Z,212.69
2018-12-21T04:04:52.882Z,212.65
2018-12-21T04:05:53.005Z,212.64
2018-12-21T04:06:53.043Z,212.58
2018-12-21T04:07:53.114Z,212.63
2018-12-21T04:08:53.354Z,212.63
2018-12-21T04:09:53.297Z,212.54
2018-12-21T04:10:53.418Z,212.58
2018-12-21T04:11:53.455Z,212.58
2018-12-21T04:12:53.553Z,212.63
2018-12-21T04:13:53.670Z,212.65
2018-12-21T04:14:53.738Z,212.59
2018-12-21T04:15:53.858Z,212.53
2018-12-21T04:16:53.978Z,212.62
2018-12-21T04:17:53.955Z,212.62
2018-12-21T04:18:54.080Z,212.60
2018-12-21T04:19:54.144Z,212.55
2018-12-21T04:20:54.263Z,212.55
2018-12-21T04:21:54.314Z,212.55
2018-12-21T04:22:54.648Z,212.57
2018-12-21T04:23:54.505Z,212.54
2018-12-21T04:24:54.598Z,212.58
2018-12-21T04:25:54.660Z,212.59
2018-12-21T04:26:54.721Z,212.61
2018-12-21T04:27:54.831Z,212.62
2018-12-21T04:28:54.910Z,212.61
2018-12-21T04:29:54.968Z,212.59
2018-12-21T04:30:55.076Z,212.58
2018-12-21T04:31:55.161Z,212.59
2018-12-21T04:32:55.256Z,212.55
2018-12-21T04:33:55.389Z,212.62
2018-12-21T04:34:55.396Z,212.51
2018-12-21T04:35:55.504Z,212.57
2018-12-21T04:36:55.603Z,212.59
2018-12-21T04:37:55.670Z,212.62
2018-12-21T04:38:55.773Z,212.57
2018-12-21T04:39:55.836Z,212.57
2018-12-21T04:40:55.965Z,212.57
2018-12-21T04:41:56.064Z,212.59
2018-12-21T04:42:56.091Z,212.57
2018-12-21T04:43:56.192Z,212.59
2018-12-21T04:44:56.258Z,212.57
2018-12-21T04:45:56.357Z,212.60
2018-12-21T04:46:56.421Z,212.54
2018-12-21T04:47:56.532Z,212.58
2018-12-21T04:48:56.631Z,212.61
2018-12-21T04:49:56.825Z,212.57
2018-12-21T04:50:56.804Z,212.58
2018-12-21T04:51:56.852Z,212.49
2018-12-21T04:52:56.958Z,212.58
2018-12-21T04:53:57.527Z,212.57
2018-12-21T04:54:57.133Z,212.51
2018-12-21T04:55:57.240Z,212.48
2018-12-21T04:56:57.272Z,212.55
2018-12-21T04:57:57.437Z,212.51
2018-12-21T04:58:57.482Z,212.54
2018-12-21T04:59:57.551Z,212.48
2018-12-21T05:00:57.647Z,212.51
2018-12-21T05:01:57.740Z,212.58
2018-12-21T05:02:57.811Z,212.58
2018-12-21T05:03:57.933Z,212.58
2018-12-21T05:04:57.989Z,212.55
2018-12-21T05:05:58.124Z,212.51
2018-12-21T05:06:58.159Z,212.48
2018-12-21T05:07:58.232Z,212.48
2018-12-21T05:08:58.349Z,212.51
2018-12-21T05:09:58.422Z,212.48
2018-12-21T05:10:58.532Z,212.48
2018-12-21T05:11:58.617Z,212.51
2018-12-21T05:12:58.684Z,212.54
2018-12-21T05:13:58.828Z,212.53
2018-12-21T05:14:58.895Z,212.53
2018-12-21T05:15:58.954Z,212.48
2018-12-21T05:16:59.038Z,212.46
2018-12-21T05:17:59.104Z,212.49
2018-12-21T05:18:59.207Z,212.53
2018-12-21T05:19:59.258Z,212.48
2018-12-21T05:20:59.376Z,212.51
2018-12-21T05:21:59.465Z,212.55
2018-12-21T05:22:59.660Z,212.51
2018-12-21T05:23:59.608Z,212.51
2018-12-21T05:24:59.676Z,212.48
2018-12-21T05:25:59.809Z,212.54
2018-12-21T05:26:59.884Z,212.49
2018-12-21T05:27:59.956Z,212.51
2018-12-21T05:29:00.059Z,212.53
2018-12-21T05:30:00.120Z,212.48
2018-12-21T05:31:00.273Z,212.51
2018-12-21T05:32:00.296Z,212.49
2018-12-21T05:33:00.375Z,212.54
2018-12-21T05:34:00.484Z,212.43
2018-12-21T05:35:00.547Z,212.48
2018-12-21T05:36:00.619Z,212.48
2018-12-21T05:37:00.728Z,212.45
2018-12-21T05:38:00.797Z,212.51
2018-12-21T05:39:00.941Z,212.51
2018-12-21T05:40:00.946Z,212.46
2018-12-21T05:41:01.038Z,212.44
2018-12-21T05:42:01.126Z,212.46
2018-12-21T05:43:01.209Z,212.49
2018-12-21T05:44:01.322Z,212.44
2018-12-21T05:45:01.379Z,212.46
2018-12-21T05:46:01.484Z,212.48
2018-12-21T05:47:01.622Z,212.48
2018-12-21T05:48:01.643Z,212.48
2018-12-21T05:49:01.739Z,212.51
2018-12-21T05:50:01.832Z,212.44
2018-12-21T05:51:01.908Z,212.48
2018-12-21T05:52:01.994Z,212.48
2018-12-21T05:53:02.046Z,212.44
2018-12-21T05:54:02.150Z,212.46
2018-12-21T05:55:02.247Z,212.46
2018-12-21T05:56:02.452Z,212.51
2018-12-21T05:57:02.417Z,212.48
2018-12-21T05:58:02.468Z,212.44
2018-12-21T05:59:02.567Z,212.51
2018-12-21T06:00:02.669Z,212.43
2018-12-21T06:01:02.766Z,212.48
2018-12-21T06:02:05.319Z,212.45
2018-12-21T06:03:02.921Z,212.46
2018-12-21T06:04:03.124Z,212.44
2018-12-21T06:05:03.110Z,212.43
2018-12-21T06:06:03.200Z,212.44
2018-12-21T06:07:03.306Z,212.51
2018-12-21T06:08:03.368Z,212.43
2018-12-21T06:09:03.448Z,212.44
2018-12-21T06:10:03.555Z,212.53
2018-12-21T06:11:03.650Z,212.51
2018-12-21T06:12:03.819Z,212.45
2018-12-21T06:13:03.806Z,212.51
2018-12-21T06:14:03.915Z,212.51
2018-12-21T06:15:03.976Z,212.46
2018-12-21T06:16:04.085Z,212.48
2018-12-21T06:17:04.167Z,212.48
2018-12-21T06:18:04.237Z,212.45
2018-12-21T06:19:04.320Z,212.48
2018-12-21T06:20:04.445Z,212.48
2018-12-21T06:21:04.574Z,212.44
2018-12-21T06:22:04.574Z,212.49
2018-12-21T06:23:09.428Z,212.45
2018-12-21T06:24:05.723Z,212.48
2018-12-21T06:25:04.832Z,264.84
2018-12-21T06:26:04.897Z,260.56
2018-12-21T06:27:04.984Z,259.43
2018-12-21T06:28:05.092Z,260.51
2018-12-21T06:29:05.218Z,263.85
2018-12-21T06:30:05.261Z,261.56
2018-12-21T06:31:05.321Z,260.94
2018-12-21T06:32:05.409Z,261.07
2018-12-21T06:33:05.489Z,260.19
2018-12-21T06:34:05.588Z,264.66
2018-12-21T06:35:05.710Z,264.60
2018-12-21T06:36:05.784Z,264.13
2018-12-21T06:37:05.940Z,260.16
2018-12-21T06:38:05.931Z,265.32
2018-12-21T06:39:06.010Z,259.81
2018-12-21T06:40:06.113Z,262.42
2018-12-21T06:41:06.187Z,265.59
2018-12-21T06:42:21.042Z,262.16
2018-12-21T06:43:06.327Z,262.63
2018-12-21T06:44:06.433Z,258.99
2018-12-21T06:45:06.651Z,262.09
2018-12-21T06:46:13.991Z,263.68
2018-12-21T06:47:07.715Z,264.58
2018-12-21T06:48:06.766Z,261.98
2018-12-21T06:49:06.858Z,259.28
2018-12-21T06:50:06.985Z,260.49
2018-12-21T06:51:07.053Z,259.94
2018-12-21T06:52:07.127Z,264.44
2018-12-21T06:53:07.225Z,262.35
2018-12-21T06:54:07.257Z,260.01
2018-12-21T06:55:07.379Z,263.46
2018-12-21T06:56:07.466Z,260.34
2018-12-21T06:57:07.547Z,264.17
2018-12-21T06:58:07.617Z,259.98
2018-12-21T06:59:07.700Z,259.52
2018-12-21T07:00:07.786Z,259.37
2018-12-21T07:01:07.975Z,262.99
2018-12-21T07:02:07.948Z,259.37
2018-12-21T07:03:08.021Z,260.20
2018-12-21T07:04:08.118Z,261.63
2018-12-21T07:05:08.220Z,262.54
2018-12-21T07:06:08.280Z,260.52
2018-12-21T07:07:08.371Z,260.80
2018-12-21T07:08:08.463Z,264.68
2018-12-21T07:09:08.571Z,263.65
2018-12-21T07:10:08.664Z,263.30
2018-12-21T07:11:08.708Z,262.01
2018-12-21T07:12:08.798Z,263.57
2018-12-21T07:13:08.902Z,261.91
2018-12-21T07:14:08.989Z,264.99
2018-12-21T07:15:09.088Z,263.46
2018-12-21T07:16:09.171Z,261.95
2018-12-21T07:17:09.261Z,260.55
2018-12-21T07:18:09.439Z,263.31
2018-12-21T07:19:09.409Z,261.51
2018-12-21T07:20:09.770Z,263.17
2018-12-21T07:21:09.577Z,259.85
2018-12-21T07:22:09.685Z,259.75
2018-12-21T07:23:09.755Z,260.64
2018-12-21T07:24:09.825Z,261.32
2018-12-21T07:25:09.930Z,264.09
2018-12-21T07:26:10.127Z,262.05
2018-12-21T07:27:10.053Z,263.21
2018-12-21T07:28:10.178Z,264.63
2018-12-21T07:29:10.247Z,264.77
2018-12-21T07:30:10.346Z,260.73
2018-12-21T07:31:10.434Z,260.22
2018-12-21T07:32:10.500Z,263.64
2018-12-21T07:33:10.588Z,264.71
2018-12-21T07:34:10.727Z,264.29
2018-12-21T07:35:10.752Z,263.91
2018-12-21T07:36:10.847Z,263.36
2018-12-21T07:37:10.912Z,264.26
2018-12-21T07:38:11.021Z,259.96
2018-12-21T07:39:11.065Z,261.77
2018-12-21T07:40:11.409Z,264.91
2018-12-21T07:41:11.270Z,260.45
2018-12-21T07:42:11.462Z,264.35
2018-12-21T07:43:11.412Z,262.41
2018-12-21T07:44:11.499Z,260.47
2018-12-21T07:45:11.584Z,260.16
2018-12-21T07:46:11.688Z,265.17
2018-12-21T07:47:11.755Z,259.54
2018-12-21T07:48:11.856Z,261.30
2018-12-21T07:49:11.921Z,259.29
2018-12-21T07:50:12.044Z,264.43
2018-12-21T07:51:12.137Z,264.44
2018-12-21T07:52:12.175Z,261.25
2018-12-21T07:53:12.280Z,265.05
2018-12-21T07:54:12.343Z,262.96
2018-12-21T07:55:12.446Z,261.60
2018-12-21T07:56:12.517Z,264.53
2018-12-21T07:57:12.590Z,262.89
2018-12-21T07:58:12.735Z,263.97
2018-12-21T07:59:12.883Z,261.90
2018-12-21T08:00:12.854Z,260.54
2018-12-21T08:01:12.929Z,260.37
2018-12-21T08:02:13.025Z,262.77
2018-12-21T08:03:13.117Z,262.30
2018-12-21T08:04:13.188Z,262.81
2018-12-21T08:05:13.295Z,259.67
2018-12-21T08:06:13.359Z,263.30
2018-12-21T08:07:13.577Z,264.16
2018-12-21T08:08:13.538Z,261.77
2018-12-21T08:09:13.608Z,264.40
2018-12-21T08:10:13.690Z,262.59
2018-12-21T08:11:13.794Z,263.93
2018-12-21T08:12:13.844Z,260.59
2018-12-21T08:13:13.961Z,260.44
2018-12-21T08:14:14.382Z,263.42
2018-12-21T08:15:14.162Z,263.22
2018-12-21T08:16:14.231Z,259.46
2018-12-21T08:17:14.309Z,265.85
2018-12-21T08:18:14.391Z,262.99
2018-12-21T08:19:14.474Z,263.85
2018-12-21T08:20:14.575Z,264.89
2018-12-21T08:21:14.700Z,265.15
2018-12-21T08:22:14.759Z,264.04
2018-12-21T08:23:14.919Z,263.53
2018-12-21T08:24:14.902Z,263.89
2018-12-21T08:25:15.020Z,265.28
2018-12-21T08:26:15.138Z,259.24
2018-12-21T08:27:15.186Z,261.60
2018-12-21T08:28:15.291Z,262.63
2018-12-21T08:29:15.458Z,265.06
2018-12-21T08:30:15.424Z,260.12
2018-12-21T08:31:15.577Z,263.09
2018-12-21T08:32:15.751Z,260.02
2018-12-21T08:33:15.727Z,258.68
2018-12-21T08:34:15.791Z,261.27
2018-12-21T08:35:15.861Z,263.15
2018-12-21T08:36:15.976Z,264.44
2018-12-21T08:37:16.058Z,259.99
2018-12-21T08:38:16.149Z,259.96
2018-12-21T08:39:16.218Z,261.13
2018-12-21T08:40:16.418Z,260.74
2018-12-21T08:41:16.413Z,260.11
2018-12-21T08:42:16.473Z,259.66
2018-12-21T08:43:16.569Z,263.26
2018-12-21T08:44:16.638Z,261.72
2018-12-21T08:45:16.729Z,263.93
2018-12-21T08:46:16.808Z,259.68
2018-12-21T08:47:16.911Z,264.38
2018-12-21T08:48:17.059Z,260.68
2018-12-21T08:49:17.055Z,263.62
2018-12-21T08:50:17.159Z,264.93
2018-12-21T08:51:17.228Z,263.69
2018-12-21T08:52:17.349Z,262.24
2018-12-21T08:53:17.429Z,263.93
2018-12-21T08:54:17.498Z,264.06
2018-12-21T08:55:17.582Z,264.92
2018-12-21T08:56:17.711Z,261.77
2018-12-21T08:57:17.739Z,263.94
2018-12-21T08:58:17.847Z,263.35
2018-12-21T08:59:17.909Z,258.86
2018-12-21T09:00:17.993Z,261.37
2018-12-21T09:01:18.121Z,264.60
2018-12-21T09:02:18.155Z,259.93
2018-12-21T09:03:18.244Z,263.67
2018-12-21T09:04:18.393Z,259.61
2018-12-21T09:05:18.426Z,259.27
2018-12-21T09:06:18.839Z,258.58
2018-12-21T09:07:18.594Z,259.31
2018-12-21T09:08:18.686Z,262.62
2018-12-21T09:09:18.747Z,259.32
2018-12-21T09:10:18.863Z,262.08
2018-12-21T09:11:18.975Z,260.80
2018-12-21T09:12:19.044Z,261.29
2018-12-21T09:13:19.235Z,259.20
2018-12-21T09:14:19.211Z,263.35
2018-12-21T09:15:19.275Z,264.22
2018-12-21T09:16:19.625Z,261.99
2018-12-21T09:17:19.444Z,263.72
2018-12-21T09:18:19.530Z,262.85
2018-12-21T09:19:19.614Z,259.15
2018-12-21T09:20:19.686Z,259.64
2018-12-21T09:21:19.950Z,259.35
2018-12-21T09:22:19.870Z,261.74
2018-12-21T09:23:19.962Z,262.98
2018-12-21T09:24:20.060Z,258.68
2018-12-21T09:25:20.135Z,259.02
2018-12-21T09:26:20.253Z,260.89
2018-12-21T09:27:20.322Z,263.87
2018-12-21T09:28:20.428Z,261.97
2018-12-21T09:29:20.595Z,263.02
2018-12-21T09:30:20.545Z,264.01
2018-12-21T09:31:20.666Z,263.37
2018-12-21T09:32:20.768Z,264.16
2018-12-21T09:33:20.839Z,261.49
2018-12-21T09:34:20.938Z,265.01
2018-12-21T09:35:21.007Z,261.78
2018-12-21T09:36:21.109Z,265.39
2018-12-21T09:37:21.236Z,264.29
2018-12-21T09:38:21.244Z,262.69
2018-12-21T09:39:21.357Z,263.18
2018-12-21T09:40:21.419Z,258.88
2018-12-21T09:41:21.525Z,258.32
2018-12-21T09:42:21.588Z,261.79
2018-12-21T09:43:21.670Z,262.51
2018-12-21T09:44:21.778Z,259.78
2018-12-21T09:45:21.887Z,263.27
2018-12-21T09:46:22.013Z,264.21
2018-12-21T09:47:22.041Z,260.15
2018-12-21T09:48:22.085Z,258.64
2018-12-21T09:49:22.207Z,264.27
2018-12-21T09:50:22.277Z,264.16
2018-12-21T09:51:22.379Z,262.73
2018-12-21T09:52:22.464Z,263.99
2018-12-21T09:53:22.544Z,260.02
2018-12-21T09:54:22.753Z,258.31
2018-12-21T09:55:22.701Z,261.30
2018-12-21T09:56:22.843Z,262.84
2018-12-21T09:57:22.886Z,259.47
2018-12-21T09:58:22.959Z,263.57
2018-12-21T09:59:23.052Z,259.69
2018-12-21T10:00:23.129Z,258.57
2018-12-21T10:01:23.223Z,261.17
2018-12-21T10:02:23.409Z,262.61
2018-12-21T10:03:23.365Z,258.87
2018-12-21T10:04:23.486Z,261.83
2018-12-21T10:05:23.567Z,263.42
2018-12-21T10:06:23.669Z,260.61
2018-12-21T10:07:27.513Z,261.37
2018-12-21T10:08:23.827Z,261.30
2018-12-21T10:09:23.946Z,258.94
2018-12-21T10:10:24.046Z,263.23
2018-12-21T10:11:24.072Z,258.34
2018-12-21T10:12:24.153Z,263.86
2018-12-21T10:13:24.242Z,262.98
2018-12-21T10:14:24.361Z,258.13
2018-12-21T10:15:24.393Z,264.12
2018-12-21T10:16:24.510Z,256.94
2018-12-21T10:17:24.614Z,258.54
2018-12-21T10:18:24.954Z,257.74
2018-12-21T10:19:24.758Z,263.84
2018-12-21T10:20:24.824Z,262.68
2018-12-21T10:21:24.909Z,259.26
2018-12-21T10:22:24.992Z,259.56
2018-12-21T10:23:25.070Z,263.49
2018-12-21T10:24:25.178Z,261.51
2018-12-21T10:25:25.243Z,261.41
2018-12-21T10:26:25.397Z,258.22
2018-12-21T10:27:25.478Z,262.95
2018-12-21T10:28:25.510Z,259.96
2018-12-21T10:29:25.622Z,262.93
2018-12-21T10:30:25.678Z,259.14
2018-12-21T10:31:25.764Z,263.35
2018-12-21T10:32:25.865Z,258.86
2018-12-21T10:33:25.914Z,261.43
2018-12-21T10:34:26.044Z,258.52
2018-12-21T10:35:26.194Z,258.09
2018-12-21T10:36:26.180Z,260.95
2018-12-21T10:37:26.283Z,258.68
2018-12-21T10:38:26.369Z,258.39
2018-12-21T10:39:26.484Z,259.13
2018-12-21T10:40:26.551Z,262.68
2018-12-21T10:41:26.631Z,263.81
2018-12-21T10:42:26.873Z,263.26
2018-12-21T10:43:26.930Z,262.25
2018-12-21T10:44:26.962Z,262.11
2018-12-21T10:45:27.002Z,262.88
2018-12-21T10:46:27.085Z,261.45
2018-12-21T10:47:27.188Z,262.77
2018-12-21T10:48:27.238Z,260.16
2018-12-21T10:49:27.398Z,259.43
2018-12-21T10:50:27.437Z,260.15
2018-12-21T10:51:27.578Z,258.37
2018-12-21T10:52:27.640Z,263.18
2018-12-21T10:53:27.903Z,263.19
2018-12-21T10:54:27.764Z,262.51
2018-12-21T10:55:27.849Z,211.03
2018-12-21T10:56:27.951Z,210.97
2018-12-21T10:57:28.068Z,211.04
2018-12-21T10:58:28.118Z,211.00
2018-12-21T10:59:28.285Z,211.00
2018-12-21T11:00:28.255Z,210.94
2018-12-21T11:01:28.354Z,210.90
2018-12-21T11:02:28.469Z,210.90
2018-12-21T11:03:28.523Z,210.88
2018-12-21T11:04:28.629Z,210.90
2018-12-21T11:05:28.715Z,211.04
2018-12-21T11:06:28.774Z,210.91
2018-12-21T11:07:28.910Z,210.94
2018-12-21T11:08:28.999Z,210.92
2018-12-21T11:09:29.072Z,210.98
2018-12-21T11:10:29.148Z,210.90
2018-12-21T11:11:29.208Z,210.91
2018-12-21T11:12:29.326Z,210.97
2018-12-21T11:13:29.408Z,211.04
2018-12-21T11:14:29.510Z,210.98
2018-12-21T11:15:29.610Z,211.01
2018-12-21T11:16:29.770Z,211.00
2018-12-21T11:17:29.789Z,211.00
2018-12-21T11:18:29.836Z,211.05
2018-12-21T11:19:29.939Z,211.03
2018-12-21T11:20:29.999Z,211.03
2018-12-21T11:21:30.083Z,211.03
2018-12-21T11:22:30.208Z,211.04
2018-12-21T11:23:30.258Z,210.96
2018-12-21T11:24:35.379Z,211.03
2018-12-21T11:25:31.434Z,210.98
2018-12-21T11:26:30.523Z,210.98
2018-12-21T11:27:30.608Z,210.92
2018-12-21T11:28:30.690Z,210.90
2018-12-21T11:29:30.808Z,210.98
2018-12-21T11:30:30.888Z,210.91
2018-12-21T11:31:30.960Z,210.88
2018-12-21T11:32:31.100Z,210.98
2018-12-21T11:33:31.097Z,211.00
2018-12-21T11:34:31.203Z,210.98
2018-12-21T11:35:31.297Z,210.98
2018-12-21T11:36:31.373Z,210.96
2018-12-21T11:37:31.477Z,210.97
2018-12-21T11:38:31.564Z,210.96
2018-12-21T11:39:31.610Z,210.94
2018-12-21T11:40:31.768Z,211.01
2018-12-21T11:41:31.773Z,210.92
2018-12-21T11:42:31.897Z,211.03
2018-12-21T11:43:31.958Z,210.94
2018-12-21T11:44:32.109Z,211.02
2018-12-21T11:45:32.156Z,210.98
2018-12-21T11:46:32.230Z,211.00
2018-12-21T11:47:32.351Z,210.97
2018-12-21T11:48:32.454Z,210.97
2018-12-21T11:49:32.583Z,211.04
2018-12-21T11:50:32.619Z,211.03
2018-12-21T11:51:32.671Z,211.05
2018-12-21T11:52:32.774Z,211.12
2018-12-21T11:53:32.889Z,211.06
2018-12-21T11:54:33.041Z,211.13
2018-12-21T11:55:33.036Z,211.10
2018-12-21T11:56:33.091Z,211.12
2018-12-21T11:57:33.319Z,211.14
2018-12-21T11:58:33.275Z,211.12
2018-12-21T11:59:33.349Z,211.10
2018-12-21T12:00:33.451Z,211.19
2018-12-21T12:01:33.529Z,211.12
2018-12-21T12:02:33.649Z,211.10
2018-12-21T12:03:33.713Z,211.16
2018-12-21T12:04:33.798Z,211.12
2018-12-21T12:05:33.972Z,211.10
2018-12-21T12:06:33.934Z,211.16
2018-12-21T12:07:34.076Z,211.16
2018-12-21T12:08:34.124Z,211.16
2018-12-21T12:09:34.207Z,211.12
2018-12-21T12:10:34.309Z,211.10
2018-12-21T12:11:34.367Z,211.17
2018-12-21T12:12:34.490Z,211.19
2018-12-21T12:13:34.566Z,211.10
2018-12-21T12:14:34.610Z,211.10
2018-12-21T12:15:34.721Z,211.12
2018-12-21T12:16:34.794Z,211.12
2018-12-21T12:17:34.893Z,211.13
2018-12-21T12:18:34.935Z,211.16
2018-12-21T12:19:35.022Z,211.10
2018-12-21T12:20:35.135Z,211.13
2018-12-21T12:21:35.287Z,211.08
2018-12-21T12:22:35.332Z,211.10
2018-12-21T12:23:35.380Z,211.10
2018-12-21T12:24:35.448Z,211.12
2018-12-21T12:25:35.566Z,211.14
2018-12-21T12:26:44.138Z,211.13
2018-12-21T12:27:36.777Z,211.10
2018-12-21T12:28:35.801Z,211.05
2018-12-21T12:29:35.901Z,211.21